Lake Leake, Tasmania

2:12 PM AEDT on February 14, 2016 (GMT +1100)
Launceston | | Change Station
CLOSE
Current Station
Airport
Location: Launceston Airport,
Elevation: 561 ft
Nearby Weather Stations

Elev 561 ft 41.55 °S, 147.21 °E | Updated 9 minutes ago

Overcast
Overcast
68 °F
Feels Like 68 °F
N
21
Wind Variable Wind from WNW
Gusts 32 mph

Today
High -- | Low -- °F
--% Chance of Precip.
Yesterday
High -- | Low -- °F
Precip. -- in
Pressure 29.62 in
Visibility 6.2 miles
Clouds Overcast 6300 ft
Overcast 7400 ft
Dew Point 39 °F
Humidity 35%
Rainfall 0.00 in
Snow Depth Not available.
6:29 AM 8:16 PM
Waxing Crescent, 37% visible
SPECI YMLT 140303Z AUTO 30018G28KT 9999 // OVC063 OVC074 20/04 Q1003
Pressure 29.62 in
Visibility 6.2 miles
Clouds Overcast 6300 ft
Overcast 7400 ft
Dew Point 39 °F
Humidity 35%
Rainfall 0.00 in
Snow Depth Not available.
6:29 AM 8:16 PM
Waxing Crescent, 37% visible
SPECI YMLT 140303Z AUTO 30018G28KT 9999 // OVC063 OVC074 20/04 Q1003

10-Day Weather Forecast

Almanac

Astronomy

Feb. 14, 2016 Rise Set
Actual Time
Civil Twilight
Nautical Twilight
Astronomical Twilight
Moon
Length of Visible Light
Length of Day
Tomorrow will be .
, % of the Moon is Illuminated

Today's Extremes

Country Highs Country Lows

Community

WunderPhotos

Upload Photos

1,892,733 photos uploaded!

WunderBlog® & News

Nearby

Air Quality

  Air Quality AQ Index Pollutant
Not available.

Snow Depth

Station Depth Elevation

Earthquake Activity

City Distance Mag. Time & Date
Minimum magnitude displayed is 2.5.

Coastal Water Temperatures

Place Temperature

Stations

Nearby Weather Stations

Station Location Temp. Windchill Dew Point Humidity Wind Precip. Elev Updated Type